sensor_id;sensor_type;location;lat;lon;timestamp;pressure;altitude;pressure_sealevel;temperature;humidity
68301;BME280;55146;47.468;18.806;2023-08-12T00:00:47;100681.44;;;16.29;80.94
68301;BME280;55146;47.468;18.806;2023-08-12T00:03:13;100681.50;;;16.24;81.26
68301;BME280;55146;47.468;18.806;2023-08-12T00:05:38;100672.66;;;16.22;81.20
68301;BME280;55146;47.468;18.806;2023-08-12T00:08:05;100685.16;;;16.19;81.21
68301;BME280;55146;47.468;18.806;2023-08-12T00:10:31;100682.69;;;16.17;81.51
68301;BME280;55146;47.468;18.806;2023-08-12T00:12:56;100679.69;;;16.14;81.79
68301;BME280;55146;47.468;18.806;2023-08-12T00:15:22;100686.34;;;16.13;81.89
68301;BME280;55146;47.468;18.806;2023-08-12T00:17:47;100679.97;;;16.12;81.71
68301;BME280;55146;47.468;18.806;2023-08-12T00:20:13;100675.84;;;16.10;82.04
68301;BME280;55146;47.468;18.806;2023-08-12T00:22:39;100676.44;;;16.07;82.11
68301;BME280;55146;47.468;18.806;2023-08-12T00:25:05;100673.44;;;16.03;82.15
68301;BME280;55146;47.468;18.806;2023-08-12T00:27:31;100680.66;;;16.04;82.37
68301;BME280;55146;47.468;18.806;2023-08-12T00:29:56;100683.72;;;16.03;82.54
68301;BME280;55146;47.468;18.806;2023-08-12T00:32:21;100671.25;;;16.00;82.66
68301;BME280;55146;47.468;18.806;2023-08-12T00:34:47;100679.81;;;16.04;82.79
68301;BME280;55146;47.468;18.806;2023-08-12T00:37:12;100679.00;;;16.03;82.74
68301;BME280;55146;47.468;18.806;2023-08-12T00:39:38;100678.38;;;16.06;82.52
68301;BME280;55146;47.468;18.806;2023-08-12T00:42:03;100676.44;;;16.07;82.22
68301;BME280;55146;47.468;18.806;2023-08-12T00:44:28;100677.09;;;15.99;81.90
68301;BME280;55146;47.468;18.806;2023-08-12T00:46:54;100679.34;;;15.97;81.84
68301;BME280;55146;47.468;18.806;2023-08-12T00:49:21;100681.88;;;15.93;81.96
68301;BME280;55146;47.468;18.806;2023-08-12T00:51:49;100667.78;;;15.90;82.23
68301;BME280;55146;47.468;18.806;2023-08-12T00:54:15;100663.69;;;15.82;82.36
68301;BME280;55146;47.468;18.806;2023-08-12T00:56:41;100664.31;;;15.79;82.10
68301;BME280;55146;47.468;18.806;2023-08-12T00:59:08;100662.38;;;15.74;82.29
68301;BME280;55146;47.468;18.806;2023-08-12T01:01:35;100663.81;;;15.72;82.23
68301;BME280;55146;47.468;18.806;2023-08-12T01:04:00;100666.31;;;15.73;82.60
68301;BME280;55146;47.468;18.806;2023-08-12T01:06:26;100665.47;;;15.73;82.45
68301;BME280;55146;47.468;18.806;2023-08-12T01:08:52;100659.09;;;15.72;82.60
68301;BME280;55146;47.468;18.806;2023-08-12T01:11:28;100658.56;;;15.70;82.39
68301;BME280;55146;47.468;18.806;2023-08-12T01:16:33;100657.56;;;15.61;82.46
68301;BME280;55146;47.468;18.806;2023-08-12T01:19:03;100661.47;;;15.60;82.56
68301;BME280;55146;47.468;18.806;2023-08-12T01:21:31;100661.75;;;15.59;82.44
68301;BME280;55146;47.468;18.806;2023-08-12T01:23:57;100655.97;;;15.55;82.49
68301;BME280;55146;47.468;18.806;2023-08-12T01:26:23;100659.31;;;15.52;82.30
68301;BME280;55146;47.468;18.806;2023-08-12T01:28:49;100669.28;;;15.53;82.40
68301;BME280;55146;47.468;18.806;2023-08-12T01:31:32;100666.00;;;15.46;82.49
68301;BME280;55146;47.468;18.806;2023-08-12T01:34:08;100674.59;;;15.45;82.58
68301;BME280;55146;47.468;18.806;2023-08-12T01:36:37;100669.06;;;15.45;82.86
68301;BME280;55146;47.468;18.806;2023-08-12T01:39:06;100665.19;;;15.46;82.79
68301;BME280;55146;47.468;18.806;2023-08-12T01:41:34;100675.16;;;15.47;82.66
68301;BME280;55146;47.468;18.806;2023-08-12T01:44:01;100676.81;;;15.48;82.77
68301;BME280;55146;47.468;18.806;2023-08-12T01:46:27;100670.72;;;15.46;82.76
68301;BME280;55146;47.468;18.806;2023-08-12T01:48:52;100661.34;;;15.42;82.51
68301;BME280;55146;47.468;18.806;2023-08-12T01:51:18;100664.69;;;15.38;82.70
68301;BME280;55146;47.468;18.806;2023-08-12T01:53:43;100660.25;;;15.37;83.04
68301;BME280;55146;47.468;18.806;2023-08-12T01:56:09;100661.69;;;15.35;83.25
68301;BME280;55146;47.468;18.806;2023-08-12T01:58:34;100658.66;;;15.31;83.29
68301;BME280;55146;47.468;18.806;2023-08-12T02:00:59;100662.81;;;15.34;83.43
68301;BME280;55146;47.468;18.806;2023-08-12T02:03:24;100659.47;;;15.32;83.50
68301;BME280;55146;47.468;18.806;2023-08-12T02:05:50;100660.09;;;15.29;83.19
68301;BME280;55146;47.468;18.806;2023-08-12T02:08:15;100668.69;;;15.27;83.22
68301;BME280;55146;47.468;18.806;2023-08-12T02:10:41;100657.03;;;15.25;83.32
68301;BME280;55146;47.468;18.806;2023-08-12T02:13:06;100662.91;;;15.24;83.10
68301;BME280;55146;47.468;18.806;2023-08-12T02:15:31;100652.09;;;15.22;83.16
68301;BME280;55146;47.468;18.806;2023-08-12T02:17:56;100653.28;;;15.16;83.43
68301;BME280;55146;47.468;18.806;2023-08-12T02:20:22;100666.03;;;15.12;83.85
68301;BME280;55146;47.468;18.806;2023-08-12T02:22:47;100662.16;;;15.13;83.80
68301;BME280;55146;47.468;18.806;2023-08-12T02:25:13;100660.50;;;15.12;84.44
68301;BME280;55146;47.468;18.806;2023-08-12T02:27:38;100661.03;;;15.14;84.72
68301;BME280;55146;47.468;18.806;2023-08-12T02:30:04;100646.63;;;15.17;84.89
68301;BME280;55146;47.468;18.806;2023-08-12T02:32:30;100664.88;;;15.18;84.86
68301;BME280;55146;47.468;18.806;2023-08-12T02:34:55;100656.28;;;15.20;84.71
68301;BME280;55146;47.468;18.806;2023-08-12T02:37:21;100653.22;;;15.21;84.86
68301;BME280;55146;47.468;18.806;2023-08-12T02:39:46;100659.66;;;15.17;84.98
68301;BME280;55146;47.468;18.806;2023-08-12T02:42:12;100657.97;;;15.16;84.75
68301;BME280;55146;47.468;18.806;2023-08-12T02:44:37;100666.28;;;15.16;84.37
68301;BME280;55146;47.468;18.806;2023-08-12T02:47:03;100656.31;;;15.15;84.36
68301;BME280;55146;47.468;18.806;2023-08-12T02:49:28;100647.47;;;15.13;84.08
68301;BME280;55146;47.468;18.806;2023-08-12T02:51:53;100647.47;;;15.13;84.33
68301;BME280;55146;47.468;18.806;2023-08-12T02:54:18;100644.19;;;15.11;84.06
68301;BME280;55146;47.468;18.806;2023-08-12T02:56:44;100651.13;;;15.08;84.06
68301;BME280;55146;47.468;18.806;2023-08-12T02:59:09;100644.22;;;15.06;84.43
68301;BME280;55146;47.468;18.806;2023-08-12T03:01:34;100649.22;;;15.04;84.56
68301;BME280;55146;47.468;18.806;2023-08-12T03:04:00;100651.22;;;14.98;84.53
68301;BME280;55146;47.468;18.806;2023-08-12T03:06:25;100654.53;;;14.95;84.48
68301;BME280;55146;47.468;18.806;2023-08-12T03:08:50;100650.94;;;14.94;84.83
68301;BME280;55146;47.468;18.806;2023-08-12T03:11:16;100655.38;;;14.95;84.74
68301;BME280;55146;47.468;18.806;2023-08-12T03:13:43;100654.53;;;14.95;84.62
68301;BME280;55146;47.468;18.806;2023-08-12T03:16:12;100665.06;;;14.98;84.82
68301;BME280;55146;47.468;18.806;2023-08-12T03:18:41;100664.81;;;14.94;84.74
68301;BME280;55146;47.468;18.806;2023-08-12T03:21:07;100666.22;;;14.92;84.56
68301;BME280;55146;47.468;18.806;2023-08-12T03:23:34;100665.69;;;14.90;84.77
68301;BME280;55146;47.468;18.806;2023-08-12T03:26:00;100662.34;;;14.88;84.70
68301;BME280;55146;47.468;18.806;2023-08-12T03:28:25;100668.22;;;14.86;84.62
68301;BME280;55146;47.468;18.806;2023-08-12T03:30:52;100670.44;;;14.84;84.54
68301;BME280;55146;47.468;18.806;2023-08-12T03:33:18;100670.19;;;14.81;84.52
68301;BME280;55146;47.468;18.806;2023-08-12T03:35:47;100675.47;;;14.77;84.58
68301;BME280;55146;47.468;18.806;2023-08-12T03:38:13;100680.19;;;14.77;85.07
68301;BME280;55146;47.468;18.806;2023-08-12T03:40:39;100675.28;;;14.69;85.55
68301;BME280;55146;47.468;18.806;2023-08-12T03:43:04;100670.81;;;14.73;85.85
68301;BME280;55146;47.468;18.806;2023-08-12T03:45:29;100678.84;;;14.74;86.04
68301;BME280;55146;47.468;18.806;2023-08-12T03:47:55;100684.59;;;14.78;86.20
68301;BME280;55146;47.468;18.806;2023-08-12T03:50:20;100687.09;;;14.79;86.15
68301;BME280;55146;47.468;18.806;2023-08-12T03:52:45;100683.22;;;14.75;85.85
68301;BME280;55146;47.468;18.806;2023-08-12T03:55:11;100687.66;;;14.76;86.22
68301;BME280;55146;47.468;18.806;2023-08-12T03:57:36;100685.72;;;14.77;86.32
68301;BME280;55146;47.468;18.806;2023-08-12T04:00:02;100689.03;;;14.79;86.48
68301;BME280;55146;47.468;18.806;2023-08-12T04:02:28;100692.09;;;14.77;86.04
68301;BME280;55146;47.468;18.806;2023-08-12T04:04:53;100686.81;;;14.76;85.87
68301;BME280;55146;47.468;18.806;2023-08-12T04:07:18;100694.03;;;14.77;85.98
68301;BME280;55146;47.468;18.806;2023-08-12T04:09:44;100689.31;;;14.77;86.15
68301;BME280;55146;47.468;18.806;2023-08-12T04:12:09;100689.31;;;14.77;86.21
68301;BME280;55146;47.468;18.806;2023-08-12T04:14:35;100692.91;;;14.78;86.38
68301;BME280;55146;47.468;18.806;2023-08-12T04:17:00;100694.56;;;14.79;86.14
68301;BME280;55146;47.468;18.806;2023-08-12T04:19:25;100694.28;;;14.80;86.18
68301;BME280;55146;47.468;18.806;2023-08-12T04:21:51;100696.22;;;14.80;85.92
68301;BME280;55146;47.468;18.806;2023-08-12T04:24:16;100697.91;;;14.81;85.75
68301;BME280;55146;47.468;18.806;2023-08-12T04:26:41;100707.00;;;14.81;85.85
68301;BME280;55146;47.468;18.806;2023-08-12T04:29:07;100703.12;;;14.82;85.80
68301;BME280;55146;47.468;18.806;2023-08-12T04:31:32;100700.34;;;14.82;85.55
68301;BME280;55146;47.468;18.806;2023-08-12T04:33:57;100702.28;;;14.82;85.99
68301;BME280;55146;47.468;18.806;2023-08-12T04:36:23;100701.19;;;14.83;86.24
68301;BME280;55146;47.468;18.806;2023-08-12T04:38:48;100703.69;;;14.84;86.47
68301;BME280;55146;47.468;18.806;2023-08-12T04:41:13;100694.53;;;14.84;86.59
68301;BME280;55146;47.468;18.806;2023-08-12T04:43:39;100711.16;;;14.84;86.47
68301;BME280;55146;47.468;18.806;2023-08-12T04:46:04;100707.00;;;14.86;86.32
68301;BME280;55146;47.468;18.806;2023-08-12T04:48:30;100709.44;;;14.88;86.17
68301;BME280;55146;47.468;18.806;2023-08-12T04:50:56;100703.62;;;14.89;86.33
68301;BME280;55146;47.468;18.806;2023-08-12T04:53:25;100713.31;;;14.92;86.59
68301;BME280;55146;47.468;18.806;2023-08-12T04:55:50;100709.13;;;14.94;86.67
68301;BME280;55146;47.468;18.806;2023-08-12T04:58:16;100703.56;;;15.00;86.57
68301;BME280;55146;47.468;18.806;2023-08-12T05:00:42;100707.97;;;15.06;86.48
68301;BME280;55146;47.468;18.806;2023-08-12T05:03:07;100707.09;;;15.10;86.34
68301;BME280;55146;47.468;18.806;2023-08-12T05:05:33;100706.50;;;15.13;85.94
68301;BME280;55146;47.468;18.806;2023-08-12T05:07:58;100706.75;;;15.17;86.07
68301;BME280;55146;47.468;18.806;2023-08-12T05:10:23;100707.28;;;15.19;85.65
68301;BME280;55146;47.468;18.806;2023-08-12T05:12:49;100702.28;;;15.21;85.55
68301;BME280;55146;47.468;18.806;2023-08-12T05:15:15;100706.94;;;15.25;85.38
68301;BME280;55146;47.468;18.806;2023-08-12T05:17:41;100706.66;;;15.27;85.43
68301;BME280;55146;47.468;18.806;2023-08-12T05:20:07;100711.63;;;15.30;85.44
68301;BME280;55146;47.468;18.806;2023-08-12T05:22:33;100711.87;;;15.33;85.59
68301;BME280;55146;47.468;18.806;2023-08-12T05:24:58;100706.56;;;15.37;85.82
68301;BME280;55146;47.468;18.806;2023-08-12T05:27:24;100704.03;;;15.41;86.01
68301;BME280;55146;47.468;18.806;2023-08-12T05:29:49;100701.22;;;15.46;86.11
68301;BME280;55146;47.468;18.806;2023-08-12T05:32:15;100695.63;;;15.51;85.93
68301;BME280;55146;47.468;18.806;2023-08-12T05:34:40;100700.63;;;15.54;85.79
68301;BME280;55146;47.468;18.806;2023-08-12T05:37:05;100695.31;;;15.57;85.29
68301;BME280;55146;47.468;18.806;2023-08-12T05:39:30;100697.19;;;15.62;85.13
68301;BME280;55146;47.468;18.806;2023-08-12T05:41:56;100696.62;;;15.65;85.14
68301;BME280;55146;47.468;18.806;2023-08-12T05:44:21;100696.28;;;15.71;85.29
68301;BME280;55146;47.468;18.806;2023-08-12T05:46:47;100694.56;;;15.75;85.33
68301;BME280;55146;47.468;18.806;2023-08-12T05:49:12;100692.56;;;15.81;85.61
68301;BME280;55146;47.468;18.806;2023-08-12T05:51:37;100690.25;;;15.88;85.93
68301;BME280;55146;47.468;18.806;2023-08-12T05:54:04;100689.62;;;15.96;85.80
68301;BME280;55146;47.468;18.806;2023-08-12T05:56:29;100695.72;;;15.98;85.72
68301;BME280;55146;47.468;18.806;2023-08-12T05:58:55;100687.53;;;16.07;85.84
68301;BME280;55146;47.468;18.806;2023-08-12T06:01:20;100692.44;;;16.15;85.27
68301;BME280;55146;47.468;18.806;2023-08-12T06:03:45;100690.72;;;16.19;85.74
68301;BME280;55146;47.468;18.806;2023-08-12T06:06:11;100683.97;;;16.25;85.37
68301;BME280;55146;47.468;18.806;2023-08-12T06:08:36;100685.81;;;16.35;84.83
68301;BME280;55146;47.468;18.806;2023-08-12T06:11:01;100690.38;;;16.44;84.54
68301;BME280;55146;47.468;18.806;2023-08-12T06:13:27;100694.16;;;16.53;83.90
68301;BME280;55146;47.468;18.806;2023-08-12T06:15:52;100686.00;;;16.62;83.45
68301;BME280;55146;47.468;18.806;2023-08-12T06:18:17;100686.91;;;16.76;84.92
68301;BME280;55146;47.468;18.806;2023-08-12T06:20:43;100692.44;;;16.95;84.92
68301;BME280;55146;47.468;18.806;2023-08-12T06:23:08;100687.69;;;17.14;84.44
68301;BME280;55146;47.468;18.806;2023-08-12T06:25:34;100692.81;;;17.39;83.55
68301;BME280;55146;47.468;18.806;2023-08-12T06:28:01;100692.28;;;17.70;81.82
68301;BME280;55146;47.468;18.806;2023-08-12T06:30:26;100691.47;;;17.97;78.39
68301;BME280;55146;47.468;18.806;2023-08-12T06:32:52;100688.28;;;18.17;77.64
68301;BME280;55146;47.468;18.806;2023-08-12T06:35:17;100703.38;;;18.52;78.88
68301;BME280;55146;47.468;18.806;2023-08-12T06:37:42;100690.34;;;18.88;75.16
68301;BME280;55146;47.468;18.806;2023-08-12T06:40:08;100692.81;;;19.12;73.44
68301;BME280;55146;47.468;18.806;2023-08-12T06:42:33;100687.91;;;19.40;70.64
68301;BME280;55146;47.468;18.806;2023-08-12T06:44:59;100685.94;;;19.63;71.79
68301;BME280;55146;47.468;18.806;2023-08-12T06:47:29;100686.62;;;19.99;71.52
68301;BME280;55146;47.468;18.806;2023-08-12T06:49:55;100680.16;;;20.38;69.00
68301;BME280;55146;47.468;18.806;2023-08-12T06:52:20;100682.03;;;20.77;65.05
68301;BME280;55146;47.468;18.806;2023-08-12T06:54:45;100682.53;;;21.05;66.32
68301;BME280;55146;47.468;18.806;2023-08-12T06:57:11;100687.13;;;21.35;67.68
68301;BME280;55146;47.468;18.806;2023-08-12T06:59:37;100680.13;;;21.67;62.02
68301;BME280;55146;47.468;18.806;2023-08-12T07:02:02;100676.91;;;21.95;61.87
68301;BME280;55146;47.468;18.806;2023-08-12T07:04:28;100682.56;;;22.24;65.90
68301;BME280;55146;47.468;18.806;2023-08-12T07:06:53;100679.09;;;22.48;61.75
68301;BME280;55146;47.468;18.806;2023-08-12T07:09:18;100677.47;;;22.76;63.02
68301;BME280;55146;47.468;18.806;2023-08-12T07:11:44;100681.13;;;23.10;62.70
68301;BME280;55146;47.468;18.806;2023-08-12T07:14:09;100676.34;;;23.43;58.30
68301;BME280;55146;47.468;18.806;2023-08-12T07:16:34;100685.56;;;23.64;58.95
68301;BME280;55146;47.468;18.806;2023-08-12T07:19:00;100684.81;;;23.88;56.98
68301;BME280;55146;47.468;18.806;2023-08-12T07:21:25;100677.22;;;24.13;58.41
68301;BME280;55146;47.468;18.806;2023-08-12T07:23:51;100682.03;;;24.37;56.04
68301;BME280;55146;47.468;18.806;2023-08-12T07:26:16;100679.44;;;24.56;57.33
68301;BME280;55146;47.468;18.806;2023-08-12T07:28:41;100681.25;;;24.76;57.12
68301;BME280;55146;47.468;18.806;2023-08-12T07:31:07;100683.38;;;24.91;54.60
68301;BME280;55146;47.468;18.806;2023-08-12T07:33:32;100678.97;;;25.06;56.47
68301;BME280;55146;47.468;18.806;2023-08-12T07:35:57;100678.69;;;25.23;56.44
68301;BME280;55146;47.468;18.806;2023-08-12T07:38:22;100682.53;;;25.47;55.89
68301;BME280;55146;47.468;18.806;2023-08-12T07:40:49;100677.53;;;25.56;55.24
68301;BME280;55146;47.468;18.806;2023-08-12T07:43:15;100682.34;;;25.67;52.93
68301;BME280;55146;47.468;18.806;2023-08-12T07:45:40;100682.28;;;25.80;54.08
68301;BME280;55146;47.468;18.806;2023-08-12T07:48:06;100679.53;;;25.99;51.06
68301;BME280;55146;47.468;18.806;2023-08-12T07:50:31;100676.72;;;26.14;54.03
68301;BME280;55146;47.468;18.806;2023-08-12T07:52:56;100682.00;;;26.32;52.10
68301;BME280;55146;47.468;18.806;2023-08-12T07:55:22;100684.00;;;26.47;49.78
68301;BME280;55146;47.468;18.806;2023-08-12T07:57:47;100675.53;;;26.47;49.01
68301;BME280;55146;47.468;18.806;2023-08-12T08:00:13;100668.84;;;26.55;48.72
68301;BME280;55146;47.468;18.806;2023-08-12T08:02:38;100664.94;;;26.79;49.96
68301;BME280;55146;47.468;18.806;2023-08-12T08:05:04;100666.91;;;26.94;46.98
68301;BME280;55146;47.468;18.806;2023-08-12T08:07:30;100666.47;;;27.11;49.53
68301;BME280;55146;47.468;18.806;2023-08-12T08:09:55;100664.97;;;27.36;51.34
68301;BME280;55146;47.468;18.806;2023-08-12T08:12:21;100668.00;;;27.47;48.79
68301;BME280;55146;47.468;18.806;2023-08-12T08:14:46;100665.47;;;27.61;45.83
68301;BME280;55146;47.468;18.806;2023-08-12T08:17:11;100666.06;;;27.70;49.27
68301;BME280;55146;47.468;18.806;2023-08-12T08:19:37;100665.75;;;27.75;45.33
68301;BME280;55146;47.468;18.806;2023-08-12T08:22:02;100669.41;;;27.76;46.03
68301;BME280;55146;47.468;18.806;2023-08-12T08:24:28;100668.44;;;27.91;46.95
68301;BME280;55146;47.468;18.806;2023-08-12T08:26:54;100657.41;;;28.09;44.38
68301;BME280;55146;47.468;18.806;2023-08-12T08:29:19;100660.50;;;28.23;46.73
68301;BME280;55146;47.468;18.806;2023-08-12T08:31:45;100663.13;;;28.35;44.81
68301;BME280;55146;47.468;18.806;2023-08-12T08:34:10;100667.28;;;28.41;43.38
68301;BME280;55146;47.468;18.806;2023-08-12T08:36:35;100658.88;;;28.48;46.05
68301;BME280;55146;47.468;18.806;2023-08-12T08:39:01;100662.44;;;28.42;47.30
68301;BME280;55146;47.468;18.806;2023-08-12T08:41:31;100653.00;;;28.61;47.99
68301;BME280;55146;47.468;18.806;2023-08-12T08:44:01;100658.00;;;28.71;45.77
68301;BME280;55146;47.468;18.806;2023-08-12T08:46:29;100657.87;;;28.90;44.50
68301;BME280;55146;47.468;18.806;2023-08-12T08:48:55;100653.56;;;29.00;41.44
68301;BME280;55146;47.468;18.806;2023-08-12T08:51:25;100654.50;;;29.11;42.00
68301;BME280;55146;47.468;18.806;2023-08-12T08:53:54;100662.31;;;29.21;43.31
68301;BME280;55146;47.468;18.806;2023-08-12T08:56:19;100654.75;;;29.32;42.95
68301;BME280;55146;47.468;18.806;2023-08-12T08:58:46;100656.12;;;29.42;44.05
68301;BME280;55146;47.468;18.806;2023-08-12T09:01:11;100659.38;;;29.44;41.01
68301;BME280;55146;47.468;18.806;2023-08-12T09:03:38;100659.41;;;29.47;43.43
68301;BME280;55146;47.468;18.806;2023-08-12T09:06:04;100649.78;;;29.55;41.74
68301;BME280;55146;47.468;18.806;2023-08-12T09:08:31;100653.19;;;29.71;42.44
68301;BME280;55146;47.468;18.806;2023-08-12T09:11:02;100656.94;;;29.83;39.27
68301;BME280;55146;47.468;18.806;2023-08-12T09:13:28;100653.31;;;29.86;38.75
68301;BME280;55146;47.468;18.806;2023-08-12T09:15:53;100654.06;;;29.79;41.95
68301;BME280;55146;47.468;18.806;2023-08-12T09:18:19;100643.56;;;29.83;38.71
68301;BME280;55146;47.468;18.806;2023-08-12T09:20:49;100643.19;;;29.85;38.13
68301;BME280;55146;47.468;18.806;2023-08-12T09:23:15;100642.81;;;29.90;37.18
68301;BME280;55146;47.468;18.806;2023-08-12T09:25:44;100641.66;;;29.94;41.95
68301;BME280;55146;47.468;18.806;2023-08-12T09:28:10;100640.91;;;30.01;42.34
68301;BME280;55146;47.468;18.806;2023-08-12T09:30:36;100643.34;;;30.02;40.30
68301;BME280;55146;47.468;18.806;2023-08-12T09:33:04;100634.50;;;30.11;39.33
68301;BME280;55146;47.468;18.806;2023-08-12T09:35:34;100632.50;;;30.11;38.88
68301;BME280;55146;47.468;18.806;2023-08-12T09:38:01;100634.09;;;30.09;40.13
68301;BME280;55146;47.468;18.806;2023-08-12T09:40:27;100635.47;;;30.29;39.20
68301;BME280;55146;47.468;18.806;2023-08-12T09:42:53;100628.62;;;30.41;37.69
68301;BME280;55146;47.468;18.806;2023-08-12T09:45:18;100630.66;;;30.40;34.99
68301;BME280;55146;47.468;18.806;2023-08-12T09:47:46;100623.72;;;30.38;38.00
68301;BME280;55146;47.468;18.806;2023-08-12T09:50:11;100626.19;;;30.36;39.99
68301;BME280;55146;47.468;18.806;2023-08-12T09:52:39;100631.50;;;30.44;39.36
68301;BME280;55146;47.468;18.806;2023-08-12T09:55:06;100629.94;;;30.50;36.70
68301;BME280;55146;47.468;18.806;2023-08-12T09:57:33;100627.00;;;30.43;39.51
68301;BME280;55146;47.468;18.806;2023-08-12T10:00:02;100622.66;;;30.57;36.01
68301;BME280;55146;47.468;18.806;2023-08-12T10:02:29;100616.25;;;30.67;32.12
68301;BME280;55146;47.468;18.806;2023-08-12T10:04:56;100626.78;;;30.66;38.52
68301;BME280;55146;47.468;18.806;2023-08-12T10:07:23;100619.09;;;30.70;36.12
68301;BME280;55146;47.468;18.806;2023-08-12T10:09:48;100618.66;;;30.68;34.34
68301;BME280;55146;47.468;18.806;2023-08-12T10:12:15;100611.41;;;30.78;36.24
68301;BME280;55146;47.468;18.806;2023-08-12T10:14:40;100612.94;;;30.54;37.50
68301;BME280;55146;47.468;18.806;2023-08-12T10:17:07;100609.53;;;30.34;38.10
68301;BME280;55146;47.468;18.806;2023-08-12T10:19:35;100602.44;;;30.07;36.96
68301;BME280;55146;47.468;18.806;2023-08-12T10:22:03;100596.06;;;29.73;34.87
68301;BME280;55146;47.468;18.806;2023-08-12T10:24:29;100600.59;;;29.41;38.94
68301;BME280;55146;47.468;18.806;2023-08-12T10:26:54;100606.19;;;29.33;40.08
68301;BME280;55146;47.468;18.806;2023-08-12T10:29:20;100593.91;;;29.59;39.57
68301;BME280;55146;47.468;18.806;2023-08-12T10:31:49;100598.81;;;29.66;38.88
68301;BME280;55146;47.468;18.806;2023-08-12T10:34:21;100598.00;;;29.65;42.64
68301;BME280;55146;47.468;18.806;2023-08-12T10:36:48;100595.91;;;29.99;40.58
68301;BME280;55146;47.468;18.806;2023-08-12T10:39:13;100594.56;;;30.41;38.25
68301;BME280;55146;47.468;18.806;2023-08-12T10:41:50;100588.19;;;30.58;38.78
68301;BME280;55146;47.468;18.806;2023-08-12T10:44:16;100589.47;;;30.75;36.46
68301;BME280;55146;47.468;18.806;2023-08-12T10:46:50;100591.19;;;30.90;38.78
68301;BME280;55146;47.468;18.806;2023-08-12T10:49:19;100588.38;;;31.01;36.37
68301;BME280;55146;47.468;18.806;2023-08-12T10:51:52;100577.25;;;30.60;31.62
68301;BME280;55146;47.468;18.806;2023-08-12T10:54:23;100575.22;;;30.64;32.99
68301;BME280;55146;47.468;18.806;2023-08-12T10:57:07;100579.78;;;30.79;31.73
68301;BME280;55146;47.468;18.806;2023-08-12T11:02:31;100577.69;;;30.69;36.01
68301;BME280;55146;47.468;18.806;2023-08-12T11:05:07;100566.37;;;30.83;37.77
68301;BME280;55146;47.468;18.806;2023-08-12T11:10:13;100565.66;;;31.11;36.37
68301;BME280;55146;47.468;18.806;2023-08-12T11:12:41;100572.22;;;31.22;37.25
68301;BME280;55146;47.468;18.806;2023-08-12T11:15:07;100569.00;;;31.34;36.78
68301;BME280;55146;47.468;18.806;2023-08-12T11:17:41;100560.00;;;31.11;32.49
68301;BME280;55146;47.468;18.806;2023-08-12T11:20:09;100554.31;;;31.04;36.25
68301;BME280;55146;47.468;18.806;2023-08-12T11:22:41;100554.72;;;31.10;35.30
68301;BME280;55146;47.468;18.806;2023-08-12T11:25:09;100545.31;;;30.99;31.92
68301;BME280;55146;47.468;18.806;2023-08-12T11:27:46;100543.25;;;30.88;34.97
68301;BME280;55146;47.468;18.806;2023-08-12T11:30:14;100537.97;;;30.83;35.17
68301;BME280;55146;47.468;18.806;2023-08-12T11:32:50;100542.44;;;30.88;36.93
68301;BME280;55146;47.468;18.806;2023-08-12T11:35:17;100537.59;;;30.95;35.13
68301;BME280;55146;47.468;18.806;2023-08-12T11:37:45;100535.66;;;31.10;34.28
68301;BME280;55146;47.468;18.806;2023-08-12T11:40:12;100532.81;;;31.21;36.31
68301;BME280;55146;47.468;18.806;2023-08-12T11:42:41;100531.44;;;30.76;33.50
68301;BME280;55146;47.468;18.806;2023-08-12T11:45:07;100528.66;;;31.01;37.26
68301;BME280;55146;47.468;18.806;2023-08-12T11:47:37;100526.31;;;31.17;38.81
68301;BME280;55146;47.468;18.806;2023-08-12T11:50:03;100529.53;;;31.19;37.90
68301;BME280;55146;47.468;18.806;2023-08-12T11:52:29;100527.53;;;31.33;37.39
68301;BME280;55146;47.468;18.806;2023-08-12T11:54:55;100529.16;;;31.42;37.34
68301;BME280;55146;47.468;18.806;2023-08-12T11:57:22;100523.88;;;31.33;33.45
68301;BME280;55146;47.468;18.806;2023-08-12T11:59:47;100523.47;;;31.20;33.80
68301;BME280;55146;47.468;18.806;2023-08-12T12:02:13;100519.78;;;31.23;35.60
68301;BME280;55146;47.468;18.806;2023-08-12T12:04:41;100521.47;;;31.35;37.16
68301;BME280;55146;47.468;18.806;2023-08-12T12:07:17;100523.47;;;31.49;36.66
68301;BME280;55146;47.468;18.806;2023-08-12T12:09:43;100508.50;;;31.59;35.18
68301;BME280;55146;47.468;18.806;2023-08-12T12:12:10;100506.84;;;31.65;35.76
68301;BME280;55146;47.468;18.806;2023-08-12T12:14:35;100501.97;;;31.65;35.45
68301;BME280;55146;47.468;18.806;2023-08-12T12:17:07;100501.56;;;31.63;33.19
68301;BME280;55146;47.468;18.806;2023-08-12T12:19:32;100498.31;;;31.61;35.24
68301;BME280;55146;47.468;18.806;2023-08-12T12:22:02;100497.09;;;31.66;34.76
68301;BME280;55146;47.468;18.806;2023-08-12T12:24:29;100493.00;;;31.53;34.56
68301;BME280;55146;47.468;18.806;2023-08-12T12:26:56;100492.19;;;31.49;36.83
68301;BME280;55146;47.468;18.806;2023-08-12T12:29:21;100490.97;;;31.53;36.20
68301;BME280;55146;47.468;18.806;2023-08-12T12:31:46;100481.63;;;31.21;33.11
68301;BME280;55146;47.468;18.806;2023-08-12T12:34:13;100485.69;;;31.23;36.25
68301;BME280;55146;47.468;18.806;2023-08-12T12:36:39;100477.56;;;31.22;34.51
68301;BME280;55146;47.468;18.806;2023-08-12T12:39:06;100476.31;;;31.05;34.84
68301;BME280;55146;47.468;18.806;2023-08-12T12:41:32;100476.34;;;31.09;36.34
68301;BME280;55146;47.468;18.806;2023-08-12T12:43:59;100474.28;;;31.06;36.46